createdAt,value
2018-06-11T00:03:01.905Z,7.67
2018-06-11T00:06:26.240Z,4.90
2018-06-11T00:09:51.049Z,6.53
2018-06-11T00:13:15.671Z,5.83
2018-06-11T00:16:40.051Z,5.30
2018-06-11T00:20:04.853Z,5.00
2018-06-11T00:23:29.549Z,7.23
2018-06-11T00:26:54.169Z,5.73
2018-06-11T00:30:18.855Z,6.37
2018-06-11T00:33:43.546Z,5.40
2018-06-11T00:37:08.198Z,5.40
2018-06-11T00:40:32.901Z,6.37
2018-06-11T00:43:57.541Z,6.83
2018-06-11T00:47:22.265Z,5.37
2018-06-11T00:50:46.956Z,4.80
2018-06-11T00:54:11.613Z,5.93
2018-06-11T00:57:36.253Z,6.50
2018-06-11T01:01:00.988Z,5.70
2018-06-11T01:04:25.653Z,4.87
2018-06-11T01:07:50.379Z,5.60
2018-06-11T01:11:15.162Z,5.43
2018-06-11T01:14:39.859Z,5.70
2018-06-11T01:18:04.550Z,6.37
2018-06-11T01:21:29.266Z,5.37
2018-06-11T01:24:53.911Z,5.40
2018-06-11T01:28:18.672Z,5.83
2018-06-11T01:31:43.362Z,5.77
2018-06-11T01:35:08.135Z,6.33
2018-06-11T01:38:32.752Z,5.27
2018-06-11T01:41:57.393Z,8.43
2018-06-11T01:45:22.113Z,6.33
2018-06-11T01:48:46.884Z,5.90
2018-06-11T01:52:11.664Z,5.43
2018-06-11T01:55:36.350Z,5.33
2018-06-11T01:59:01.085Z,4.87
2018-06-11T02:02:25.741Z,7.40
2018-06-11T02:05:50.065Z,6.47
2018-06-11T02:09:14.760Z,5.43
2018-06-11T02:12:39.370Z,6.70
2018-06-11T02:16:04.107Z,4.80
2018-06-11T02:19:28.843Z,7.70
2018-06-11T02:22:53.528Z,7.60
2018-06-11T02:26:18.878Z,4.73
2018-06-11T02:29:43.561Z,8.53
2018-06-11T02:33:08.277Z,5.27
2018-06-11T02:36:32.942Z,4.93
2018-06-11T02:39:57.669Z,4.97
2018-06-11T02:43:22.293Z,4.87
2018-06-11T02:46:47.119Z,5.00
2018-06-11T02:50:11.860Z,9.30
2018-06-11T02:53:36.518Z,5.20
2018-06-11T02:57:01.191Z,7.37
2018-06-11T03:00:25.871Z,6.10
2018-06-11T03:03:50.519Z,7.27
2018-06-11T03:07:15.261Z,7.07
2018-06-11T03:10:40.001Z,6.47
2018-06-11T03:14:04.721Z,7.63
2018-06-11T03:17:29.021Z,5.43
2018-06-11T03:20:53.717Z,6.80
2018-06-11T03:24:18.380Z,6.30
2018-06-11T03:27:43.092Z,5.83
2018-06-11T03:31:07.831Z,5.97
2018-06-11T03:34:32.505Z,7.77
2018-06-11T03:37:57.162Z,5.77
2018-06-11T03:41:21.824Z,6.17
2018-06-11T03:44:46.552Z,6.20
2018-06-11T03:48:11.190Z,5.53
2018-06-11T03:51:35.893Z,5.63
2018-06-11T03:55:00.658Z,7.27
2018-06-11T03:58:25.401Z,5.70
2018-06-11T04:01:50.201Z,7.50
2018-06-11T04:05:14.969Z,8.23
2018-06-11T04:08:39.673Z,5.10
2018-06-11T04:12:05.227Z,6.13
2018-06-11T04:15:29.969Z,6.50
2018-06-11T04:18:54.658Z,7.40
2018-06-11T04:22:19.378Z,8.10
2018-06-11T04:25:44.160Z,8.33
2018-06-11T04:29:08.523Z,8.07
2018-06-11T04:32:33.234Z,8.23
2018-06-11T04:35:58.062Z,7.83
2018-06-11T04:39:22.792Z,7.07
2018-06-11T04:42:47.522Z,9.87
2018-06-11T04:46:12.170Z,10.97
2018-06-11T04:49:36.926Z,10.63
2018-06-11T04:53:01.700Z,7.37
2018-06-11T04:56:26.384Z,9.63
2018-06-11T04:59:51.067Z,9.10
2018-06-11T05:03:15.513Z,7.43
2018-06-11T05:06:40.331Z,7.80
2018-06-11T05:10:05.228Z,8.53
2018-06-11T05:13:29.998Z,8.10
2018-06-11T05:16:54.715Z,7.57
2018-06-11T05:20:19.428Z,7.70
2018-06-11T05:23:44.237Z,8.27
2018-06-11T05:27:08.913Z,8.67
2018-06-11T05:30:33.713Z,9.13
2018-06-11T05:33:58.535Z,8.17
2018-06-11T05:37:23.482Z,8.17
2018-06-11T05:40:48.210Z,7.87
2018-06-11T05:44:12.928Z,12.03
2018-06-11T05:47:37.660Z,9.00
2018-06-11T05:51:01.973Z,11.13
2018-06-11T05:54:26.613Z,7.37
2018-06-11T05:57:51.263Z,7.23
2018-06-11T06:01:15.634Z,8.40
2018-06-11T06:04:40.616Z,7.83
2018-06-11T06:08:05.150Z,8.77
2018-06-11T06:11:30.167Z,8.00
2018-06-11T06:14:54.905Z,8.07
2018-06-11T06:18:19.250Z,9.57
2018-06-11T06:21:43.958Z,8.37
2018-06-11T06:25:08.630Z,8.13
2018-06-11T06:28:33.314Z,7.43
2018-06-11T06:31:58.188Z,10.70
2018-06-11T06:35:22.939Z,8.37
2018-06-11T06:38:47.668Z,9.27
2018-06-11T06:42:12.412Z,9.20
2018-06-11T06:45:37.183Z,10.07
2018-06-11T06:49:01.894Z,10.30
2018-06-11T06:52:28.543Z,7.87
2018-06-11T06:55:53.153Z,9.00
2018-06-11T06:59:17.964Z,7.50
2018-06-11T07:02:43.979Z,11.33
2018-06-11T07:06:08.787Z,8.93
2018-06-11T07:09:33.486Z,7.60
2018-06-11T07:12:59.227Z,9.50
2018-06-11T07:16:23.947Z,7.17
2018-06-11T07:19:48.657Z,9.57
2018-06-11T07:23:13.311Z,7.80
2018-06-11T07:26:38.031Z,8.10
2018-06-11T07:30:02.486Z,9.23
2018-06-11T07:33:27.173Z,8.23
2018-06-11T07:36:52.381Z,9.03
2018-06-11T07:40:17.888Z,8.77
2018-06-11T07:43:42.756Z,11.00
2018-06-11T07:47:07.427Z,9.93
2018-06-11T07:50:32.380Z,8.83
2018-06-11T07:53:57.200Z,8.53
2018-06-11T07:57:21.941Z,7.33
2018-06-11T08:00:46.593Z,11.20
2018-06-11T08:04:11.190Z,8.73
2018-06-11T08:07:35.934Z,7.53
2018-06-11T08:11:00.696Z,7.90
2018-06-11T08:14:25.556Z,8.13
2018-06-11T08:17:50.542Z,7.77
2018-06-11T08:21:15.272Z,6.07
2018-06-11T08:24:39.561Z,6.37
2018-06-11T08:28:04.262Z,6.00
2018-06-11T08:31:28.616Z,6.43
2018-06-11T08:34:53.285Z,5.93
2018-06-11T08:38:17.932Z,9.50
2018-06-11T08:41:42.592Z,6.20
2018-06-11T08:45:07.261Z,8.53
2018-06-11T08:48:31.926Z,6.93
2018-06-11T08:51:56.261Z,6.93
2018-06-11T08:55:21.052Z,6.37
2018-06-11T08:58:45.817Z,7.77
2018-06-11T09:02:10.562Z,7.47
2018-06-11T09:05:34.881Z,7.17
2018-06-11T09:08:59.467Z,7.37
2018-06-11T09:12:25.224Z,6.20
2018-06-11T09:15:49.854Z,8.77
2018-06-11T09:19:15.528Z,6.30
2018-06-11T09:22:40.405Z,5.90
2018-06-11T09:26:06.507Z,5.37
2018-06-11T09:29:31.304Z,5.77
2018-06-11T09:32:57.012Z,6.63
2018-06-11T09:36:21.716Z,7.00
2018-06-11T09:39:46.516Z,8.30
2018-06-11T09:43:12.991Z,8.30
2018-06-11T09:46:37.722Z,7.27
2018-06-11T09:50:02.754Z,9.33
2018-06-11T09:53:28.436Z,8.97
2018-06-11T09:56:53.632Z,9.77
2018-06-11T10:00:23.660Z,8.67
2018-06-11T10:03:48.417Z,8.53
2018-06-11T10:07:13.119Z,9.20
2018-06-11T10:10:38.333Z,9.07
2018-06-11T10:14:03.124Z,7.67
2018-06-11T10:17:28.614Z,7.83
2018-06-11T10:20:54.438Z,9.43
2018-06-11T10:24:19.511Z,8.23
2018-06-11T10:27:44.887Z,9.57
2018-06-11T10:31:10.783Z,8.97
2018-06-11T10:34:35.460Z,7.83
2018-06-11T10:38:00.310Z,8.47
2018-06-11T10:41:25.236Z,7.67
2018-06-11T10:44:49.879Z,7.30
2018-06-11T10:48:14.557Z,7.87
2018-06-11T10:51:39.310Z,10.37
2018-06-11T10:55:05.105Z,9.40
2018-06-11T10:58:29.821Z,8.63
2018-06-11T11:01:54.477Z,14.30
2018-06-11T11:05:19.128Z,8.23
2018-06-11T11:08:43.900Z,11.60
2018-06-11T11:12:08.573Z,12.57
2018-06-11T11:15:33.218Z,11.40
2018-06-11T11:18:57.528Z,9.17
2018-06-11T11:22:22.148Z,9.23
2018-06-11T11:25:46.924Z,10.33
2018-06-11T11:29:11.597Z,8.50
2018-06-11T11:32:36.398Z,9.90
2018-06-11T11:36:01.084Z,10.10
2018-06-11T11:39:25.760Z,8.23
2018-06-11T11:42:50.544Z,10.87
2018-06-11T11:46:15.205Z,11.63
2018-06-11T11:49:39.950Z,10.63
2018-06-11T11:53:04.329Z,10.17
2018-06-11T11:56:28.959Z,9.53
2018-06-11T11:59:53.570Z,9.07
2018-06-11T12:03:18.269Z,9.13
2018-06-11T12:06:43.026Z,12.83
2018-06-11T12:10:07.828Z,13.57
2018-06-11T12:13:32.471Z,12.30
2018-06-11T12:16:57.168Z,12.87
2018-06-11T12:20:21.853Z,13.50
2018-06-11T12:23:46.512Z,11.53
2018-06-11T12:27:11.131Z,10.83
2018-06-11T12:30:35.718Z,11.57
2018-06-11T12:34:00.453Z,13.00
2018-06-11T12:37:25.214Z,11.07
2018-06-11T12:40:49.838Z,12.47
2018-06-11T12:44:14.549Z,13.60
2018-06-11T12:47:39.291Z,14.63
2018-06-11T12:51:09.737Z,13.23
2018-06-11T12:54:34.342Z,17.53
2018-06-11T12:57:59.000Z,10.67
2018-06-11T13:01:23.288Z,11.13
2018-06-11T13:04:47.962Z,11.07
2018-06-11T13:08:12.363Z,12.53
2018-06-11T13:11:37.090Z,12.27
2018-06-11T13:15:01.807Z,10.30
2018-06-11T13:18:26.148Z,10.10
2018-06-11T13:21:50.803Z,14.13
2018-06-11T13:25:15.478Z,13.17
2018-06-11T13:28:40.217Z,12.20
2018-06-11T13:32:04.682Z,12.50
2018-06-11T13:35:29.546Z,11.90
2018-06-11T13:38:55.054Z,13.07
2018-06-11T13:42:19.750Z,10.30
2018-06-11T13:45:45.393Z,12.53
2018-06-11T13:49:10.108Z,8.97
2018-06-11T13:52:34.716Z,11.33
2018-06-11T13:55:59.401Z,11.20
2018-06-11T13:59:24.568Z,14.80
2018-06-11T14:02:49.301Z,10.20
2018-06-11T14:06:13.656Z,11.13
2018-06-11T14:09:38.406Z,8.47
2018-06-11T14:13:03.562Z,13.20
2018-06-11T14:16:28.293Z,13.50
2018-06-11T14:19:53.005Z,12.83
2018-06-11T14:23:17.338Z,6.67
2018-06-11T14:26:42.043Z,7.20
2018-06-11T14:30:06.809Z,6.90
2018-06-11T14:33:31.443Z,8.83
2018-06-11T14:36:56.101Z,6.53
2018-06-11T14:40:20.820Z,7.17
2018-06-11T14:43:45.759Z,4.93
2018-06-11T14:47:10.454Z,7.30
2018-06-11T14:50:35.196Z,11.17
2018-06-11T14:53:59.975Z,7.73
2018-06-11T14:57:24.659Z,7.50
2018-06-11T15:00:49.322Z,5.97
2018-06-11T15:04:14.041Z,6.80
2018-06-11T15:07:38.659Z,6.33
2018-06-11T15:11:03.356Z,5.10
2018-06-11T15:14:28.197Z,5.73
2018-06-11T15:17:53.037Z,4.83
2018-06-11T15:21:18.391Z,3.90
2018-06-11T15:24:43.459Z,4.90
2018-06-11T15:28:08.229Z,2.53
2018-06-11T15:31:32.991Z,3.77
2018-06-11T15:34:57.821Z,3.90
2018-06-11T15:38:22.811Z,3.47
2018-06-11T15:41:47.814Z,3.23
2018-06-11T15:45:13.796Z,2.80
2018-06-11T15:48:38.497Z,1.80
2018-06-11T15:52:03.508Z,3.03
2018-06-11T15:55:28.968Z,17.03
2018-06-11T15:58:53.752Z,2.30
2018-06-11T16:02:18.459Z,2.97
2018-06-11T16:05:43.679Z,2.13
2018-06-11T16:09:08.863Z,2.70
2018-06-11T16:12:35.384Z,3.37
2018-06-11T16:16:00.293Z,2.57
2018-06-11T16:19:24.604Z,2.33
2018-06-11T16:22:49.262Z,1.90
2018-06-11T16:26:13.580Z,3.37
2018-06-11T16:29:38.270Z,1.63
2018-06-11T16:33:03.173Z,2.80
2018-06-11T16:36:27.947Z,2.87
2018-06-11T16:39:52.633Z,2.83
2018-06-11T16:43:17.339Z,3.13
2018-06-11T16:46:43.264Z,2.03
2018-06-11T16:50:10.989Z,2.00
2018-06-11T16:53:37.829Z,2.50
2018-06-11T16:57:03.606Z,1.90
2018-06-11T17:00:28.299Z,2.17
2018-06-11T17:03:54.094Z,2.10
2018-06-11T17:07:19.031Z,2.97
2018-06-11T17:10:43.884Z,1.57
2018-06-11T17:14:09.064Z,2.57
2018-06-11T17:17:33.507Z,1.77
2018-06-11T17:20:57.878Z,1.73
2018-06-11T17:24:25.047Z,1.33
2018-06-11T17:27:50.652Z,1.93
2018-06-11T17:31:16.900Z,1.70
2018-06-11T17:34:42.568Z,3.77
2018-06-11T17:38:07.263Z,1.73
2018-06-11T17:41:31.983Z,2.43
2018-06-11T17:44:56.710Z,1.90
2018-06-11T17:48:21.389Z,2.00
2018-06-11T17:51:46.128Z,1.30
2018-06-11T17:55:10.852Z,5.17
2018-06-11T17:58:35.345Z,2.00
2018-06-11T18:02:00.400Z,1.90
2018-06-11T18:05:24.925Z,1.73
2018-06-11T18:08:49.844Z,1.53
2018-06-11T18:12:14.604Z,2.57
2018-06-11T18:15:40.008Z,1.50
2018-06-11T18:19:04.807Z,1.83
2018-06-11T18:22:32.091Z,2.60
2018-06-11T18:25:58.561Z,2.63
2018-06-11T18:29:23.361Z,1.73
2018-06-11T18:32:49.382Z,1.60
2018-06-11T18:36:14.174Z,3.53
2018-06-11T18:39:39.305Z,1.80
2018-06-11T18:43:03.917Z,1.63
2018-06-11T18:46:28.794Z,2.70
2018-06-11T18:49:54.169Z,5.00
2018-06-11T18:53:19.527Z,2.00
2018-06-11T18:56:45.851Z,2.00
2018-06-11T19:00:10.861Z,2.30
2018-06-11T19:03:36.646Z,1.63
2018-06-11T19:07:01.394Z,2.70
2018-06-11T19:10:26.481Z,3.17
2018-06-11T19:13:51.242Z,4.20
2018-06-11T19:17:18.723Z,2.47
2018-06-11T19:20:43.561Z,2.20
2018-06-11T19:24:10.583Z,2.87
2018-06-11T19:27:35.567Z,3.43
2018-06-11T19:31:00.866Z,2.33
2018-06-11T19:34:25.877Z,1.60
2018-06-11T19:37:50.818Z,5.57
2018-06-11T19:41:15.670Z,3.37
2018-06-11T19:44:40.500Z,2.73
2018-06-11T19:48:05.440Z,2.20
2018-06-11T19:51:30.145Z,2.47
2018-06-11T19:54:54.844Z,3.13
2018-06-11T19:58:19.593Z,3.20
2018-06-11T20:01:44.359Z,4.57
2018-06-11T20:05:09.153Z,2.20
2018-06-11T20:08:33.796Z,3.77
2018-06-11T20:11:58.621Z,2.83
2018-06-11T20:15:24.112Z,2.57
2018-06-11T20:18:48.802Z,4.67
2018-06-11T20:22:14.468Z,3.83
2018-06-11T20:25:39.265Z,4.40
2018-06-11T20:29:04.126Z,2.97
2018-06-11T20:32:28.872Z,3.07
2018-06-11T20:35:53.187Z,2.40
2018-06-11T20:39:17.934Z,3.10
2018-06-11T20:42:42.845Z,3.17
2018-06-11T20:46:07.193Z,3.07
2018-06-11T20:49:33.199Z,4.23
2018-06-11T20:52:59.043Z,4.33
2018-06-11T20:56:25.141Z,6.87
2018-06-11T20:59:50.912Z,3.97
2018-06-11T21:03:16.007Z,5.83
2018-06-11T21:06:41.200Z,2.73
2018-06-11T21:10:06.311Z,2.97
2018-06-11T21:13:31.802Z,2.90
2018-06-11T21:16:56.802Z,2.20
2018-06-11T21:20:21.981Z,3.17
2018-06-11T21:23:46.720Z,2.27
2018-06-11T21:27:11.524Z,4.73
2018-06-11T21:30:36.238Z,3.80
2018-06-11T21:34:00.983Z,2.50
2018-06-11T21:37:25.867Z,5.07
2018-06-11T21:40:50.574Z,2.67
2018-06-11T21:44:15.394Z,3.57
2018-06-11T21:47:40.114Z,3.77
2018-06-11T21:51:04.820Z,2.87
2018-06-11T21:54:29.772Z,3.87
2018-06-11T21:57:54.487Z,3.53
2018-06-11T22:01:19.234Z,4.03
2018-06-11T22:04:43.521Z,5.47
2018-06-11T22:08:09.398Z,5.30
2018-06-11T22:11:34.191Z,3.40
2018-06-11T22:14:58.893Z,4.07
2018-06-11T22:18:23.595Z,4.07
2018-06-11T22:21:48.318Z,3.83
2018-06-11T22:25:13.047Z,4.03
2018-06-11T22:28:37.813Z,7.57
2018-06-11T22:32:02.589Z,5.03
2018-06-11T22:35:27.320Z,6.20
2018-06-11T22:38:52.055Z,4.50
2018-06-11T22:42:16.810Z,7.77
2018-06-11T22:45:41.560Z,5.73
2018-06-11T22:49:06.021Z,5.87
2018-06-11T22:52:30.727Z,3.90
2018-06-11T22:55:56.381Z,4.00
2018-06-11T22:59:21.039Z,5.10
2018-06-11T23:02:45.681Z,6.07
2018-06-11T23:06:10.449Z,4.60
2018-06-11T23:09:35.145Z,5.20
2018-06-11T23:12:59.785Z,4.40
2018-06-11T23:16:24.542Z,4.57
2018-06-11T23:19:49.191Z,4.37
2018-06-11T23:23:13.893Z,5.17
2018-06-11T23:26:38.629Z,9.13
2018-06-11T23:30:03.394Z,4.97
2018-06-11T23:33:28.095Z,6.87
2018-06-11T23:36:52.879Z,6.97
2018-06-11T23:40:17.583Z,4.07
2018-06-11T23:43:42.200Z,4.90
2018-06-11T23:47:06.967Z,6.30
2018-06-11T23:50:31.608Z,6.77
2018-06-11T23:53:56.271Z,5.47
2018-06-11T23:57:20.893Z,5.43
